Majestic Princess — MABI4 — position and weather

sailwx.info

Track history (hours):
 
Tides and Currents Weather Stations Pressure Air Temp Water Temp Dewpoint Dewpoint Depression Visibility Wind Speed Wind Dir Waves Ship Positions

Majestic Princess

Last reported at 2018-May-21 06:00 UTC. Time now 2018-May-21 09:07 UTC.
Position N 25°36' E 124°42'.

Length 330 m; draft 8.6 m.

Type: Passenger vessel. MMSI: 232002990.

Wind from 350 at 25 knots

Barometer 1011.8 mb
Air temperature 27.0 ° C
Visibility: greater than 10.8 NM
Dewpoint 21.3 ° C
Water temperature 29.0 ° C

Date/timePositionNaut miles runAvg speedWind from/ knotsBaromVisibWave heightAir tempDewpointWater temp
2018-May-21 06:00N 25°36' E 124°42'12010.9 350 / 251011.810.8 27.021.329.0
2018-May-20 19:00N 25°48' E 126°54'33 1.6 220 / 171007.910.8 25.023.627.0
2018-May-19 23:00N 25°54' E 126°18'7117.8 180 / 171009.710.8 26.023.228.0
2018-May-19 19:00N 25°42' E 125°00'16020.0 180 / 201008.410.8 26.024.629.0
2018-May-19 11:00N 25°12' E 122°06'122 4.2 040 / 101008.9 2.2 25.023.623.8
2018-May-18 06:00N 24°18' E 124°06'83 4.1 170 / 101012.1 5.4 31.524.028.8
2018-May-17 10:00N 25°36' E 124°36'3311.0 170 / 241010.510.8 26.524.528.8
2018-May-17 07:00N 25°30' E 125°12'76 9.5 180 / 171009.410.8 26.524.527.9
2018-May-16 23:00N 25°30' E 126°36'93 3.3 130 / 151010.810.8 25.524.126.5
2018-May-15 19:00N 25°42' E 124°54'13919.3 180 / 321009.310.8 25.524.127.4
2018-May-15 11:47N 25°21' E 122°21'1316.9
2018-May-15 10:59N 25°19' E 122°07'612.7
2018-May-15 10:30N 25°17' E 122°00'612.7
2018-May-15 10:00N 25°16' E 121°53'612.5
2018-May-15 09:30N 25°14' E 121°47'5 9.9
2018-May-15 09:00N 25°09' E 121°45'1 2.5
2018-May-15 08:26N 25°08' E 121°45'0 0.0
2018-May-15 08:00N 25°08' E 121°45'0 0.0
2018-May-15 07:30N 25°08' E 121°45'0 0.0
2018-May-15 06:59N 25°08' E 121°45'0 0.0
2018-May-15 06:29N 25°08' E 121°45'0 0.0
2018-May-15 05:59N 25°08' E 121°45'0 0.0
2018-May-15 05:29N 25°08' E 121°45'0 0.0
2018-May-15 04:59N 25°08' E 121°45'0 0.0
2018-May-15 04:29N 25°08' E 121°45'0 0.0
2018-May-15 04:00N 25°08' E 121°45'0 0.0
2018-May-15 03:29N 25°08' E 121°45'0 0.0
2018-May-15 02:59N 25°08' E 121°45'0 0.0
2018-May-15 02:29N 25°08' E 121°45'0 0.0
2018-May-15 01:59N 25°08' E 121°45'0 0.0
2018-May-15 01:29N 25°08' E 121°45'0 0.0
2018-May-15 00:59N 25°08' E 121°45'0 0.0
2018-May-15 00:30N 25°08' E 121°45'0 0.0
2018-May-15 00:00N 25°08' E 121°45'0 0.0
2018-May-14 23:30N 25°08' E 121°45'0 0.0
2018-May-14 23:00N 25°08' E 121°45'0 0.5
2018-May-14 22:30N 25°08' E 121°45'3 6.3
2018-May-14 22:00N 25°11' E 121°45'5 9.4
2018-May-14 21:30N 25°15' E 121°48'611.7
2018-May-14 21:00N 25°14' E 121°55'611.9
2018-May-14 20:30N 25°12' E 122°01'611.5
2018-May-14 20:00N 25°10' E 122°07'4012.4
2018-May-14 16:45N 24°56' E 122°49'613.3
2018-May-14 16:20N 24°54' E 122°55'2113.8
2018-May-14 14:48N 24°47' E 123°17'53 6.1
2018-May-14 06:00N 24°18' E 124°06'84 2.3 130 / 81014.810.8 28.024.627.4
2018-May-12 17:29N 25°27' E 123°13'5 9.7
2018-May-12 17:01N 25°27' E 123°08'510.0
2018-May-12 16:31N 25°27' E 123°03'710.1
2018-May-12 15:48N 25°26' E 122°55'410.4
2018-May-12 15:24N 25°26' E 122°50'611.1
2018-May-12 14:51N 25°25' E 122°44'411.2
2018-May-12 14:31N 25°25' E 122°39'510.5
2018-May-12 14:00N 25°24' E 122°33'5 9.5
2018-May-12 13:30N 25°24' E 122°28'18 9.8
2018-May-12 11:43N 25°21' E 122°09'210.8
2018-May-12 11:31N 25°20' E 122°07'510.3
2018-May-12 11:01N 25°18' E 122°01'510.8
2018-May-12 10:30N 25°17' E 121°56'5 9.1
2018-May-12 10:00N 25°15' E 121°51'4 8.2
2018-May-12 09:30N 25°14' E 121°47'5 9.4
2018-May-12 09:00N 25°09' E 121°45'1 2.9
2018-May-12 08:31N 25°08' E 121°45'0 0.0
2018-May-12 08:00N 25°08' E 121°45'0 0.0
2018-May-12 07:30N 25°08' E 121°45'0 0.0
2018-May-12 07:00N 25°08' E 121°45'0 0.0
2018-May-12 06:30N 25°08' E 121°45'0 0.0
2018-May-12 06:00N 25°08' E 121°45'0 0.0
2018-May-12 05:30N 25°08' E 121°45'0 0.0
2018-May-12 05:00N 25°08' E 121°45'0 0.0
2018-May-12 04:30N 25°08' E 121°45'0 0.0
2018-May-12 04:00N 25°08' E 121°45'0 0.0
2018-May-12 03:30N 25°08' E 121°45'0 0.0
2018-May-12 03:00N 25°08' E 121°45'0 0.0
2018-May-12 02:27N 25°08' E 121°45'0 0.0
2018-May-12 02:00N 25°08' E 121°45'0 0.0
2018-May-12 01:30N 25°08' E 121°45'0 0.0
2018-May-12 01:00N 25°08' E 121°45'0 0.0
2018-May-12 00:30N 25°08' E 121°45'0 0.0
2018-May-12 00:00N 25°08' E 121°45'0 0.0
2018-May-11 23:30N 25°08' E 121°45'0 0.0
2018-May-11 23:00N 25°08' E 121°45'0 0.0
2018-May-11 22:30N 25°08' E 121°45'0 0.2
2018-May-11 22:00N 25°08' E 121°45'3 6.7
2018-May-11 21:30N 25°11' E 121°45'4 8.1
2018-May-11 21:00N 25°15' E 121°47'510.9
2018-May-11 20:30N 25°15' E 121°54'510.8
2018-May-11 20:00N 25°13' E 121°59'611.2
2018-May-11 19:30N 25°11' E 122°05'5 9.2
2018-May-11 19:00N 25°06' E 122°06'4411.8 190 / 181011.010.8 24.520.926.0
2018-May-11 15:17N 24°55' E 122°53'723.9
2018-May-11 15:00N 24°48' E 122°54'2113.2 140 / 81014.010.8 25.316.827.0
2018-May-11 13:25N 24°47' E 123°17'512.4
2018-May-11 13:00N 24°45' E 123°22'  
Track history (hours):
 
Tides and Currents Weather Stations Pressure Air Temp Water Temp Dewpoint Dewpoint Depression Visibility Wind Speed Wind Dir Waves Ship Positions

Majestic Princess

Last reported at 2018-May-21 06:00 UTC. Time now 2018-May-21 09:07 UTC.
Position N 25°36' E 124°42'.

Length 330 m; draft 8.6 m.

Type: Passenger vessel. MMSI: 232002990.

Wind from 350 at 25 knots

Barometer 1011.8 mb
Air temperature 27.0 ° C
Visibility: greater than 10.8 NM
Dewpoint 21.3 ° C
Water temperature 29.0 ° C

Date/timePositionNaut miles runAvg speedWind from/ knotsBaromVisibWave heightAir tempDewpointWater temp
2018-May-21 06:00N 25°36' E 124°42'12010.9 350 / 251011.810.8 27.021.329.0
2018-May-20 19:00N 25°48' E 126°54'33 1.6 220 / 171007.910.8 25.023.627.0
2018-May-19 23:00N 25°54' E 126°18'7117.8 180 / 171009.710.8 26.023.228.0
2018-May-19 19:00N 25°42' E 125°00'16020.0 180 / 201008.410.8 26.024.629.0
2018-May-19 11:00N 25°12' E 122°06'122 4.2 040 / 101008.9 2.2 25.023.623.8
2018-May-18 06:00N 24°18' E 124°06'83 4.1 170 / 101012.1 5.4 31.524.028.8
2018-May-17 10:00N 25°36' E 124°36'3311.0 170 / 241010.510.8 26.524.528.8
2018-May-17 07:00N 25°30' E 125°12'76 9.5 180 / 171009.410.8 26.524.527.9
2018-May-16 23:00N 25°30' E 126°36'93 3.3 130 / 151010.810.8 25.524.126.5
2018-May-15 19:00N 25°42' E 124°54'13919.3 180 / 321009.310.8 25.524.127.4
2018-May-15 11:47N 25°21' E 122°21'1316.9
2018-May-15 10:59N 25°19' E 122°07'612.7
2018-May-15 10:30N 25°17' E 122°00'612.7
2018-May-15 10:00N 25°16' E 121°53'612.5
2018-May-15 09:30N 25°14' E 121°47'5 9.9
2018-May-15 09:00N 25°09' E 121°45'1 2.5
2018-May-15 08:26N 25°08' E 121°45'0 0.0
2018-May-15 08:00N 25°08' E 121°45'0 0.0
2018-May-15 07:30N 25°08' E 121°45'0 0.0
2018-May-15 06:59N 25°08' E 121°45'0 0.0
2018-May-15 06:29N 25°08' E 121°45'0 0.0
2018-May-15 05:59N 25°08' E 121°45'0 0.0
2018-May-15 05:29N 25°08' E 121°45'0 0.0
2018-May-15 04:59N 25°08' E 121°45'0 0.0
2018-May-15 04:29N 25°08' E 121°45'0 0.0
2018-May-15 04:00N 25°08' E 121°45'0 0.0
2018-May-15 03:29N 25°08' E 121°45'0 0.0
2018-May-15 02:59N 25°08' E 121°45'0 0.0
2018-May-15 02:29N 25°08' E 121°45'0 0.0
2018-May-15 01:59N 25°08' E 121°45'0 0.0
2018-May-15 01:29N 25°08' E 121°45'0 0.0
2018-May-15 00:59N 25°08' E 121°45'0 0.0
2018-May-15 00:30N 25°08' E 121°45'0 0.0
2018-May-15 00:00N 25°08' E 121°45'0 0.0
2018-May-14 23:30N 25°08' E 121°45'0 0.0
2018-May-14 23:00N 25°08' E 121°45'0 0.5
2018-May-14 22:30N 25°08' E 121°45'3 6.3
2018-May-14 22:00N 25°11' E 121°45'5 9.4
2018-May-14 21:30N 25°15' E 121°48'611.7
2018-May-14 21:00N 25°14' E 121°55'611.9
2018-May-14 20:30N 25°12' E 122°01'611.5
2018-May-14 20:00N 25°10' E 122°07'4012.4
2018-May-14 16:45N 24°56' E 122°49'613.3
2018-May-14 16:20N 24°54' E 122°55'2113.8
2018-May-14 14:48N 24°47' E 123°17'53 6.1
2018-May-14 06:00N 24°18' E 124°06'84 2.3 130 / 81014.810.8 28.024.627.4
2018-May-12 17:29N 25°27' E 123°13'5 9.7
2018-May-12 17:01N 25°27' E 123°08'510.0
2018-May-12 16:31N 25°27' E 123°03'710.1
2018-May-12 15:48N 25°26' E 122°55'410.4
2018-May-12 15:24N 25°26' E 122°50'611.1
2018-May-12 14:51N 25°25' E 122°44'411.2
2018-May-12 14:31N 25°25' E 122°39'510.5
2018-May-12 14:00N 25°24' E 122°33'5 9.5
2018-May-12 13:30N 25°24' E 122°28'18 9.8
2018-May-12 11:43N 25°21' E 122°09'210.8
2018-May-12 11:31N 25°20' E 122°07'510.3
2018-May-12 11:01N 25°18' E 122°01'510.8
2018-May-12 10:30N 25°17' E 121°56'5 9.1
2018-May-12 10:00N 25°15' E 121°51'4 8.2
2018-May-12 09:30N 25°14' E 121°47'5 9.4
2018-May-12 09:00N 25°09' E 121°45'1 2.9
2018-May-12 08:31N 25°08' E 121°45'0 0.0
2018-May-12 08:00N 25°08' E 121°45'0 0.0
2018-May-12 07:30N 25°08' E 121°45'0 0.0
2018-May-12 07:00N 25°08' E 121°45'0 0.0
2018-May-12 06:30N 25°08' E 121°45'0 0.0
2018-May-12 06:00N 25°08' E 121°45'0 0.0
2018-May-12 05:30N 25°08' E 121°45'0 0.0
2018-May-12 05:00N 25°08' E 121°45'0 0.0
2018-May-12 04:30N 25°08' E 121°45'0 0.0
2018-May-12 04:00N 25°08' E 121°45'0 0.0
2018-May-12 03:30N 25°08' E 121°45'0 0.0
2018-May-12 03:00N 25°08' E 121°45'0 0.0
2018-May-12 02:27N 25°08' E 121°45'0 0.0
2018-May-12 02:00N 25°08' E 121°45'0 0.0
2018-May-12 01:30N 25°08' E 121°45'0 0.0
2018-May-12 01:00N 25°08' E 121°45'0 0.0
2018-May-12 00:30N 25°08' E 121°45'0 0.0
2018-May-12 00:00N 25°08' E 121°45'0 0.0
2018-May-11 23:30N 25°08' E 121°45'0 0.0
2018-May-11 23:00N 25°08' E 121°45'0 0.0
2018-May-11 22:30N 25°08' E 121°45'0 0.2
2018-May-11 22:00N 25°08' E 121°45'3 6.7
2018-May-11 21:30N 25°11' E 121°45'4 8.1
2018-May-11 21:00N 25°15' E 121°47'510.9
2018-May-11 20:30N 25°15' E 121°54'510.8
2018-May-11 20:00N 25°13' E 121°59'611.2
2018-May-11 19:30N 25°11' E 122°05'5 9.2
2018-May-11 19:00N 25°06' E 122°06'4411.8 190 / 181011.010.8 24.520.926.0
2018-May-11 15:17N 24°55' E 122°53'723.9
2018-May-11 15:00N 24°48' E 122°54'2113.2 140 / 81014.010.8 25.316.827.0
2018-May-11 13:25N 24°47' E 123°17'512.4
2018-May-11 13:00N 24°45' E 123°22'  

Dump ship's entire track history